sensor_id;sensor_type;location;lat;lon;timestamp;P1;durP1;ratioP1;P2;durP2;ratioP2
40164;SDS011;25882;51.120;17.248;2023-02-28T00:01:26;43.67;;;19.15;;
40164;SDS011;25882;51.120;17.248;2023-02-28T00:03:52;36.00;;;17.02;;
40164;SDS011;25882;51.120;17.248;2023-02-28T00:06:18;36.47;;;17.02;;
40164;SDS011;25882;51.120;17.248;2023-02-28T00:08:46;38.33;;;17.95;;
40164;SDS011;25882;51.120;17.248;2023-02-28T00:11:14;32.47;;;16.17;;
40164;SDS011;25882;51.120;17.248;2023-02-28T00:13:42;36.30;;;15.60;;
40164;SDS011;25882;51.120;17.248;2023-02-28T00:16:12;33.60;;;14.90;;
40164;SDS011;25882;51.120;17.248;2023-02-28T00:18:40;30.63;;;14.60;;
40164;SDS011;25882;51.120;17.248;2023-02-28T00:21:06;36.80;;;16.08;;
40164;SDS011;25882;51.120;17.248;2023-02-28T00:23:34;36.92;;;15.27;;
40164;SDS011;25882;51.120;17.248;2023-02-28T00:26:00;38.80;;;16.27;;
40164;SDS011;25882;51.120;17.248;2023-02-28T00:28:28;30.85;;;14.98;;
40164;SDS011;25882;51.120;17.248;2023-02-28T00:30:54;32.60;;;14.80;;
40164;SDS011;25882;51.120;17.248;2023-02-28T00:33:21;35.05;;;15.48;;
40164;SDS011;25882;51.120;17.248;2023-02-28T00:35:47;33.55;;;17.35;;
40164;SDS011;25882;51.120;17.248;2023-02-28T00:38:14;137.82;;;58.97;;
40164;SDS011;25882;51.120;17.248;2023-02-28T00:40:41;123.95;;;50.70;;
40164;SDS011;25882;51.120;17.248;2023-02-28T00:43:07;41.78;;;21.85;;
40164;SDS011;25882;51.120;17.248;2023-02-28T00:45:35;126.72;;;53.65;;
40164;SDS011;25882;51.120;17.248;2023-02-28T00:48:01;42.22;;;20.27;;
40164;SDS011;25882;51.120;17.248;2023-02-28T00:50:28;47.30;;;22.25;;
40164;SDS011;25882;51.120;17.248;2023-02-28T00:52:54;38.97;;;17.63;;
40164;SDS011;25882;51.120;17.248;2023-02-28T00:55:20;50.05;;;20.85;;
40164;SDS011;25882;51.120;17.248;2023-02-28T00:57:47;45.90;;;18.92;;
40164;SDS011;25882;51.120;17.248;2023-02-28T01:00:14;39.80;;;17.42;;
40164;SDS011;25882;51.120;17.248;2023-02-28T01:02:42;45.15;;;19.38;;
40164;SDS011;25882;51.120;17.248;2023-02-28T01:05:08;40.65;;;18.95;;
40164;SDS011;25882;51.120;17.248;2023-02-28T01:07:35;46.70;;;17.33;;
40164;SDS011;25882;51.120;17.248;2023-02-28T01:10:01;39.53;;;17.98;;
40164;SDS011;25882;51.120;17.248;2023-02-28T01:12:28;37.40;;;16.42;;
40164;SDS011;25882;51.120;17.248;2023-02-28T01:14:54;48.97;;;20.58;;
40164;SDS011;25882;51.120;17.248;2023-02-28T01:17:20;55.80;;;25.48;;
40164;SDS011;25882;51.120;17.248;2023-02-28T01:19:48;42.67;;;18.05;;
40164;SDS011;25882;51.120;17.248;2023-02-28T01:22:15;61.47;;;25.55;;
40164;SDS011;25882;51.120;17.248;2023-02-28T01:24:41;46.00;;;20.10;;
40164;SDS011;25882;51.120;17.248;2023-02-28T01:27:07;44.67;;;20.45;;
40164;SDS011;25882;51.120;17.248;2023-02-28T01:29:34;43.13;;;19.52;;
40164;SDS011;25882;51.120;17.248;2023-02-28T01:32:00;45.22;;;18.50;;
40164;SDS011;25882;51.120;17.248;2023-02-28T01:34:26;35.92;;;18.17;;
40164;SDS011;25882;51.120;17.248;2023-02-28T01:36:54;34.78;;;14.98;;
40164;SDS011;25882;51.120;17.248;2023-02-28T01:39:21;32.28;;;15.80;;
40164;SDS011;25882;51.120;17.248;2023-02-28T01:41:47;33.17;;;15.45;;
40164;SDS011;25882;51.120;17.248;2023-02-28T01:47:17;33.83;;;15.93;;
40164;SDS011;25882;51.120;17.248;2023-02-28T01:49:43;83.15;;;32.15;;
40164;SDS011;25882;51.120;17.248;2023-02-28T01:52:12;50.50;;;21.10;;
40164;SDS011;25882;51.120;17.248;2023-02-28T01:54:43;46.25;;;22.80;;
40164;SDS011;25882;51.120;17.248;2023-02-28T01:57:12;44.15;;;19.63;;
40164;SDS011;25882;51.120;17.248;2023-02-28T01:59:41;45.05;;;21.10;;
40164;SDS011;25882;51.120;17.248;2023-02-28T02:02:13;46.65;;;21.02;;
40164;SDS011;25882;51.120;17.248;2023-02-28T02:04:40;38.53;;;19.55;;
40164;SDS011;25882;51.120;17.248;2023-02-28T02:07:12;43.58;;;18.80;;
40164;SDS011;25882;51.120;17.248;2023-02-28T02:09:38;47.00;;;19.98;;
40164;SDS011;25882;51.120;17.248;2023-02-28T02:12:07;40.25;;;19.90;;
40164;SDS011;25882;51.120;17.248;2023-02-28T02:14:41;46.35;;;24.15;;
40164;SDS011;25882;51.120;17.248;2023-02-28T02:17:16;45.95;;;20.95;;
40164;SDS011;25882;51.120;17.248;2023-02-28T02:22:59;33.33;;;17.17;;
40164;SDS011;25882;51.120;17.248;2023-02-28T02:25:33;61.22;;;24.35;;
40164;SDS011;25882;51.120;17.248;2023-02-28T02:31:25;52.65;;;23.17;;
40164;SDS011;25882;51.120;17.248;2023-02-28T02:34:16;65.80;;;30.10;;
40164;SDS011;25882;51.120;17.248;2023-02-28T02:39:19;79.15;;;35.40;;
40164;SDS011;25882;51.120;17.248;2023-02-28T02:41:51;46.67;;;21.75;;
40164;SDS011;25882;51.120;17.248;2023-02-28T02:44:20;42.10;;;19.77;;
40164;SDS011;25882;51.120;17.248;2023-02-28T02:46:49;32.25;;;17.48;;
40164;SDS011;25882;51.120;17.248;2023-02-28T02:49:19;36.97;;;18.05;;
40164;SDS011;25882;51.120;17.248;2023-02-28T02:51:47;36.67;;;16.90;;
40164;SDS011;25882;51.120;17.248;2023-02-28T02:54:14;38.65;;;17.25;;
40164;SDS011;25882;51.120;17.248;2023-02-28T02:56:43;38.08;;;18.45;;
40164;SDS011;25882;51.120;17.248;2023-02-28T02:59:12;38.72;;;17.65;;
40164;SDS011;25882;51.120;17.248;2023-02-28T03:01:39;36.58;;;18.00;;
40164;SDS011;25882;51.120;17.248;2023-02-28T03:04:07;41.85;;;19.25;;
40164;SDS011;25882;51.120;17.248;2023-02-28T03:06:36;35.60;;;16.67;;
40164;SDS011;25882;51.120;17.248;2023-02-28T03:09:03;36.55;;;18.05;;
40164;SDS011;25882;51.120;17.248;2023-02-28T03:11:30;36.67;;;16.45;;
40164;SDS011;25882;51.120;17.248;2023-02-28T03:14:19;46.40;;;21.17;;
40164;SDS011;25882;51.120;17.248;2023-02-28T03:17:14;44.47;;;19.23;;
40164;SDS011;25882;51.120;17.248;2023-02-28T03:19:51;37.55;;;17.17;;
40164;SDS011;25882;51.120;17.248;2023-02-28T03:22:29;37.75;;;18.17;;
40164;SDS011;25882;51.120;17.248;2023-02-28T03:25:05;40.15;;;17.25;;
40164;SDS011;25882;51.120;17.248;2023-02-28T03:27:36;36.80;;;18.38;;
40164;SDS011;25882;51.120;17.248;2023-02-28T03:30:08;40.20;;;18.58;;
40164;SDS011;25882;51.120;17.248;2023-02-28T03:32:36;39.60;;;19.92;;
40164;SDS011;25882;51.120;17.248;2023-02-28T03:35:07;40.85;;;18.63;;
40164;SDS011;25882;51.120;17.248;2023-02-28T03:37:37;41.85;;;19.08;;
40164;SDS011;25882;51.120;17.248;2023-02-28T03:40:06;45.25;;;20.90;;
40164;SDS011;25882;51.120;17.248;2023-02-28T03:42:37;60.67;;;26.05;;
40164;SDS011;25882;51.120;17.248;2023-02-28T03:45:05;73.13;;;29.35;;
40164;SDS011;25882;51.120;17.248;2023-02-28T03:47:37;69.72;;;27.10;;
40164;SDS011;25882;51.120;17.248;2023-02-28T03:50:07;68.38;;;26.90;;
40164;SDS011;25882;51.120;17.248;2023-02-28T03:52:38;63.90;;;25.02;;
40164;SDS011;25882;51.120;17.248;2023-02-28T03:55:11;49.60;;;23.23;;
40164;SDS011;25882;51.120;17.248;2023-02-28T03:57:39;56.28;;;26.40;;
40164;SDS011;25882;51.120;17.248;2023-02-28T04:00:08;58.90;;;24.02;;
40164;SDS011;25882;51.120;17.248;2023-02-28T04:02:38;49.05;;;20.83;;
40164;SDS011;25882;51.120;17.248;2023-02-28T04:05:05;53.17;;;23.20;;
40164;SDS011;25882;51.120;17.248;2023-02-28T04:07:32;53.67;;;23.50;;
40164;SDS011;25882;51.120;17.248;2023-02-28T04:10:00;46.78;;;20.02;;
40164;SDS011;25882;51.120;17.248;2023-02-28T04:12:26;36.30;;;18.48;;
40164;SDS011;25882;51.120;17.248;2023-02-28T04:14:53;45.75;;;21.38;;
40164;SDS011;25882;51.120;17.248;2023-02-28T04:17:19;44.08;;;18.52;;
40164;SDS011;25882;51.120;17.248;2023-02-28T04:19:46;42.88;;;18.88;;
40164;SDS011;25882;51.120;17.248;2023-02-28T04:22:12;41.58;;;19.65;;
40164;SDS011;25882;51.120;17.248;2023-02-28T04:24:39;44.55;;;18.95;;
40164;SDS011;25882;51.120;17.248;2023-02-28T04:27:10;49.75;;;20.67;;
40164;SDS011;25882;51.120;17.248;2023-02-28T04:29:36;42.03;;;19.50;;
40164;SDS011;25882;51.120;17.248;2023-02-28T04:32:02;41.80;;;21.73;;
40164;SDS011;25882;51.120;17.248;2023-02-28T04:34:30;45.42;;;20.75;;
40164;SDS011;25882;51.120;17.248;2023-02-28T04:36:57;47.03;;;22.10;;
40164;SDS011;25882;51.120;17.248;2023-02-28T04:39:24;41.17;;;19.42;;
40164;SDS011;25882;51.120;17.248;2023-02-28T04:41:50;45.25;;;19.30;;
40164;SDS011;25882;51.120;17.248;2023-02-28T04:44:18;43.25;;;20.13;;
40164;SDS011;25882;51.120;17.248;2023-02-28T04:46:44;42.30;;;19.02;;
40164;SDS011;25882;51.120;17.248;2023-02-28T04:49:11;40.28;;;18.33;;
40164;SDS011;25882;51.120;17.248;2023-02-28T04:51:37;38.78;;;17.35;;
40164;SDS011;25882;51.120;17.248;2023-02-28T04:54:04;39.67;;;17.65;;
40164;SDS011;25882;51.120;17.248;2023-02-28T04:56:30;36.83;;;17.98;;
40164;SDS011;25882;51.120;17.248;2023-02-28T04:58:57;40.15;;;18.63;;
40164;SDS011;25882;51.120;17.248;2023-02-28T05:01:25;38.83;;;17.30;;
40164;SDS011;25882;51.120;17.248;2023-02-28T05:03:53;37.05;;;18.35;;
40164;SDS011;25882;51.120;17.248;2023-02-28T05:06:20;35.40;;;17.00;;
40164;SDS011;25882;51.120;17.248;2023-02-28T05:08:47;46.25;;;20.65;;
40164;SDS011;25882;51.120;17.248;2023-02-28T05:11:15;40.95;;;20.15;;
40164;SDS011;25882;51.120;17.248;2023-02-28T05:13:43;36.30;;;18.35;;
40164;SDS011;25882;51.120;17.248;2023-02-28T05:16:09;52.05;;;21.85;;
40164;SDS011;25882;51.120;17.248;2023-02-28T05:18:38;34.33;;;18.50;;
40164;SDS011;25882;51.120;17.248;2023-02-28T05:21:05;37.63;;;19.45;;
40164;SDS011;25882;51.120;17.248;2023-02-28T05:23:32;42.15;;;19.90;;
40164;SDS011;25882;51.120;17.248;2023-02-28T05:25:59;42.40;;;19.85;;
40164;SDS011;25882;51.120;17.248;2023-02-28T05:28:25;42.42;;;20.20;;
40164;SDS011;25882;51.120;17.248;2023-02-28T05:30:51;41.42;;;20.73;;
40164;SDS011;25882;51.120;17.248;2023-02-28T05:33:18;42.33;;;18.70;;
40164;SDS011;25882;51.120;17.248;2023-02-28T05:35:46;42.70;;;21.55;;
40164;SDS011;25882;51.120;17.248;2023-02-28T05:38:13;44.70;;;21.00;;
40164;SDS011;25882;51.120;17.248;2023-02-28T05:40:39;45.70;;;22.63;;
40164;SDS011;25882;51.120;17.248;2023-02-28T05:43:07;55.30;;;24.77;;
40164;SDS011;25882;51.120;17.248;2023-02-28T05:45:36;62.67;;;27.13;;
40164;SDS011;25882;51.120;17.248;2023-02-28T05:48:02;93.68;;;35.75;;
40164;SDS011;25882;51.120;17.248;2023-02-28T05:50:28;41.70;;;17.40;;
40164;SDS011;25882;51.120;17.248;2023-02-28T05:52:57;39.28;;;19.17;;
40164;SDS011;25882;51.120;17.248;2023-02-28T05:55:23;33.03;;;15.70;;
40164;SDS011;25882;51.120;17.248;2023-02-28T05:57:50;38.88;;;18.75;;
40164;SDS011;25882;51.120;17.248;2023-02-28T06:00:16;111.80;;;42.42;;
40164;SDS011;25882;51.120;17.248;2023-02-28T06:02:43;79.93;;;30.73;;
40164;SDS011;25882;51.120;17.248;2023-02-28T06:05:11;41.20;;;19.95;;
40164;SDS011;25882;51.120;17.248;2023-02-28T06:07:39;75.25;;;32.78;;
40164;SDS011;25882;51.120;17.248;2023-02-28T06:10:08;57.45;;;26.00;;
40164;SDS011;25882;51.120;17.248;2023-02-28T06:12:36;47.60;;;22.40;;
40164;SDS011;25882;51.120;17.248;2023-02-28T06:15:03;54.05;;;23.70;;
40164;SDS011;25882;51.120;17.248;2023-02-28T06:17:30;51.33;;;25.98;;
40164;SDS011;25882;51.120;17.248;2023-02-28T06:19:56;58.25;;;26.02;;
40164;SDS011;25882;51.120;17.248;2023-02-28T06:22:23;58.88;;;27.67;;
40164;SDS011;25882;51.120;17.248;2023-02-28T06:24:50;54.05;;;24.88;;
40164;SDS011;25882;51.120;17.248;2023-02-28T06:27:18;81.85;;;33.53;;
40164;SDS011;25882;51.120;17.248;2023-02-28T06:29:45;55.47;;;26.17;;
40164;SDS011;25882;51.120;17.248;2023-02-28T06:32:12;54.50;;;22.30;;
40164;SDS011;25882;51.120;17.248;2023-02-28T06:34:38;47.13;;;22.35;;
40164;SDS011;25882;51.120;17.248;2023-02-28T06:37:04;43.88;;;21.23;;
40164;SDS011;25882;51.120;17.248;2023-02-28T06:39:31;35.30;;;16.85;;
40164;SDS011;25882;51.120;17.248;2023-02-28T06:41:58;55.05;;;23.48;;
40164;SDS011;25882;51.120;17.248;2023-02-28T06:44:25;39.22;;;19.70;;
40164;SDS011;25882;51.120;17.248;2023-02-28T06:46:52;26.55;;;14.27;;
40164;SDS011;25882;51.120;17.248;2023-02-28T06:49:19;19.30;;;11.88;;
40164;SDS011;25882;51.120;17.248;2023-02-28T06:51:46;22.45;;;12.23;;
40164;SDS011;25882;51.120;17.248;2023-02-28T06:54:12;23.02;;;12.50;;
40164;SDS011;25882;51.120;17.248;2023-02-28T06:56:39;18.00;;;9.10;;
40164;SDS011;25882;51.120;17.248;2023-02-28T06:59:05;20.83;;;10.73;;
40164;SDS011;25882;51.120;17.248;2023-02-28T07:01:33;18.63;;;9.80;;
40164;SDS011;25882;51.120;17.248;2023-02-28T07:04:00;13.93;;;8.57;;
40164;SDS011;25882;51.120;17.248;2023-02-28T07:06:27;20.13;;;12.90;;
40164;SDS011;25882;51.120;17.248;2023-02-28T07:08:53;14.65;;;10.68;;
40164;SDS011;25882;51.120;17.248;2023-02-28T07:11:21;16.30;;;9.50;;
40164;SDS011;25882;51.120;17.248;2023-02-28T07:13:48;11.43;;;6.97;;
40164;SDS011;25882;51.120;17.248;2023-02-28T07:16:14;13.50;;;8.00;;
40164;SDS011;25882;51.120;17.248;2023-02-28T07:18:42;14.20;;;8.13;;
40164;SDS011;25882;51.120;17.248;2023-02-28T07:21:09;14.38;;;8.05;;
40164;SDS011;25882;51.120;17.248;2023-02-28T07:23:36;15.55;;;8.50;;
40164;SDS011;25882;51.120;17.248;2023-02-28T07:26:07;12.70;;;7.97;;
40164;SDS011;25882;51.120;17.248;2023-02-28T07:28:38;17.88;;;9.30;;
40164;SDS011;25882;51.120;17.248;2023-02-28T07:31:05;14.02;;;8.25;;
40164;SDS011;25882;51.120;17.248;2023-02-28T07:33:32;17.10;;;9.77;;
40164;SDS011;25882;51.120;17.248;2023-02-28T07:36:01;15.43;;;8.68;;
40164;SDS011;25882;51.120;17.248;2023-02-28T07:38:29;13.23;;;8.00;;
40164;SDS011;25882;51.120;17.248;2023-02-28T07:40:56;14.85;;;7.55;;
40164;SDS011;25882;51.120;17.248;2023-02-28T07:43:22;14.68;;;8.18;;
40164;SDS011;25882;51.120;17.248;2023-02-28T07:45:49;12.38;;;7.43;;
40164;SDS011;25882;51.120;17.248;2023-02-28T07:48:15;14.48;;;7.85;;
40164;SDS011;25882;51.120;17.248;2023-02-28T07:50:42;11.80;;;7.30;;
40164;SDS011;25882;51.120;17.248;2023-02-28T07:53:09;16.83;;;9.02;;
40164;SDS011;25882;51.120;17.248;2023-02-28T07:55:36;13.35;;;8.23;;
40164;SDS011;25882;51.120;17.248;2023-02-28T07:58:02;12.45;;;7.43;;
40164;SDS011;25882;51.120;17.248;2023-02-28T08:00:29;11.65;;;7.05;;
40164;SDS011;25882;51.120;17.248;2023-02-28T08:02:57;10.55;;;6.88;;
40164;SDS011;25882;51.120;17.248;2023-02-28T08:05:24;13.90;;;8.63;;
40164;SDS011;25882;51.120;17.248;2023-02-28T08:07:50;13.77;;;7.18;;
40164;SDS011;25882;51.120;17.248;2023-02-28T08:10:19;10.82;;;6.30;;
40164;SDS011;25882;51.120;17.248;2023-02-28T08:12:45;11.88;;;7.18;;
40164;SDS011;25882;51.120;17.248;2023-02-28T08:15:11;12.35;;;7.07;;
40164;SDS011;25882;51.120;17.248;2023-02-28T08:17:38;10.85;;;6.75;;
40164;SDS011;25882;51.120;17.248;2023-02-28T08:20:05;13.55;;;8.38;;
40164;SDS011;25882;51.120;17.248;2023-02-28T08:22:33;11.05;;;6.03;;
40164;SDS011;25882;51.120;17.248;2023-02-28T08:24:59;11.45;;;6.85;;
40164;SDS011;25882;51.120;17.248;2023-02-28T08:27:27;10.35;;;6.95;;
40164;SDS011;25882;51.120;17.248;2023-02-28T08:29:54;8.50;;;6.55;;
40164;SDS011;25882;51.120;17.248;2023-02-28T08:32:20;11.55;;;7.18;;
40164;SDS011;25882;51.120;17.248;2023-02-28T08:34:47;10.25;;;7.13;;
40164;SDS011;25882;51.120;17.248;2023-02-28T08:37:13;9.45;;;6.60;;
40164;SDS011;25882;51.120;17.248;2023-02-28T08:39:40;11.23;;;6.72;;
40164;SDS011;25882;51.120;17.248;2023-02-28T08:42:06;11.95;;;6.93;;
40164;SDS011;25882;51.120;17.248;2023-02-28T08:44:34;11.27;;;6.35;;
40164;SDS011;25882;51.120;17.248;2023-02-28T08:47:00;11.23;;;6.78;;
40164;SDS011;25882;51.120;17.248;2023-02-28T08:49:27;14.55;;;8.35;;
40164;SDS011;25882;51.120;17.248;2023-02-28T08:51:54;13.25;;;8.45;;
40164;SDS011;25882;51.120;17.248;2023-02-28T08:54:23;26.33;;;16.92;;
40164;SDS011;25882;51.120;17.248;2023-02-28T08:56:49;14.45;;;9.05;;
40164;SDS011;25882;51.120;17.248;2023-02-28T08:59:16;10.55;;;7.28;;
40164;SDS011;25882;51.120;17.248;2023-02-28T09:01:44;14.02;;;7.70;;
40164;SDS011;25882;51.120;17.248;2023-02-28T09:04:11;13.40;;;7.88;;
40164;SDS011;25882;51.120;17.248;2023-02-28T09:06:37;12.75;;;8.07;;
40164;SDS011;25882;51.120;17.248;2023-02-28T09:09:05;13.32;;;8.05;;
40164;SDS011;25882;51.120;17.248;2023-02-28T09:11:33;16.10;;;8.77;;
40164;SDS011;25882;51.120;17.248;2023-02-28T09:14:00;14.40;;;8.15;;
40164;SDS011;25882;51.120;17.248;2023-02-28T09:16:28;13.55;;;8.40;;
40164;SDS011;25882;51.120;17.248;2023-02-28T09:18:58;15.70;;;10.15;;
40164;SDS011;25882;51.120;17.248;2023-02-28T09:21:24;13.40;;;9.13;;
40164;SDS011;25882;51.120;17.248;2023-02-28T09:23:51;10.77;;;7.00;;
40164;SDS011;25882;51.120;17.248;2023-02-28T09:26:18;18.42;;;7.43;;
40164;SDS011;25882;51.120;17.248;2023-02-28T09:28:46;11.80;;;6.72;;
40164;SDS011;25882;51.120;17.248;2023-02-28T09:31:13;16.58;;;8.88;;
40164;SDS011;25882;51.120;17.248;2023-02-28T09:33:40;10.32;;;5.55;;
40164;SDS011;25882;51.120;17.248;2023-02-28T09:36:08;9.82;;;5.55;;
40164;SDS011;25882;51.120;17.248;2023-02-28T09:38:35;8.32;;;5.65;;
40164;SDS011;25882;51.120;17.248;2023-02-28T09:41:03;9.82;;;5.85;;
40164;SDS011;25882;51.120;17.248;2023-02-28T09:43:35;12.20;;;6.97;;
40164;SDS011;25882;51.120;17.248;2023-02-28T09:46:05;10.40;;;6.65;;
40164;SDS011;25882;51.120;17.248;2023-02-28T09:48:38;18.98;;;7.07;;
40164;SDS011;25882;51.120;17.248;2023-02-28T09:51:12;9.97;;;6.07;;
40164;SDS011;25882;51.120;17.248;2023-02-28T09:53:42;10.98;;;7.05;;
40164;SDS011;25882;51.120;17.248;2023-02-28T09:56:08;23.58;;;9.82;;
40164;SDS011;25882;51.120;17.248;2023-02-28T09:58:38;16.27;;;8.18;;
40164;SDS011;25882;51.120;17.248;2023-02-28T10:01:10;8.25;;;5.80;;
40164;SDS011;25882;51.120;17.248;2023-02-28T10:03:43;8.40;;;5.78;;
40164;SDS011;25882;51.120;17.248;2023-02-28T10:06:15;9.93;;;6.75;;
40164;SDS011;25882;51.120;17.248;2023-02-28T10:08:45;17.98;;;9.02;;
40164;SDS011;25882;51.120;17.248;2023-02-28T10:11:17;10.80;;;6.32;;
40164;SDS011;25882;51.120;17.248;2023-02-28T10:13:50;12.65;;;7.32;;
40164;SDS011;25882;51.120;17.248;2023-02-28T10:16:20;11.60;;;8.07;;
40164;SDS011;25882;51.120;17.248;2023-02-28T10:18:51;12.25;;;7.40;;
40164;SDS011;25882;51.120;17.248;2023-02-28T10:21:22;10.75;;;7.15;;
40164;SDS011;25882;51.120;17.248;2023-02-28T10:23:53;14.32;;;8.00;;
40164;SDS011;25882;51.120;17.248;2023-02-28T10:26:25;13.43;;;6.90;;
40164;SDS011;25882;51.120;17.248;2023-02-28T10:28:53;12.02;;;6.78;;
40164;SDS011;25882;51.120;17.248;2023-02-28T10:31:19;9.93;;;5.90;;
40164;SDS011;25882;51.120;17.248;2023-02-28T10:33:46;10.27;;;6.55;;
40164;SDS011;25882;51.120;17.248;2023-02-28T10:36:14;11.52;;;6.65;;
40164;SDS011;25882;51.120;17.248;2023-02-28T10:38:44;9.60;;;5.95;;
40164;SDS011;25882;51.120;17.248;2023-02-28T10:41:12;11.25;;;6.22;;
40164;SDS011;25882;51.120;17.248;2023-02-28T10:43:43;11.55;;;6.28;;
40164;SDS011;25882;51.120;17.248;2023-02-28T10:46:11;10.02;;;5.55;;
40164;SDS011;25882;51.120;17.248;2023-02-28T10:48:41;8.07;;;5.00;;
40164;SDS011;25882;51.120;17.248;2023-02-28T10:51:09;13.10;;;6.78;;
40164;SDS011;25882;51.120;17.248;2023-02-28T10:53:46;12.23;;;5.97;;
40164;SDS011;25882;51.120;17.248;2023-02-28T10:56:15;11.45;;;5.88;;
40164;SDS011;25882;51.120;17.248;2023-02-28T10:58:51;12.10;;;6.82;;
40164;SDS011;25882;51.120;17.248;2023-02-28T11:01:19;12.65;;;7.05;;
40164;SDS011;25882;51.120;17.248;2023-02-28T11:03:47;12.40;;;6.50;;
40164;SDS011;25882;51.120;17.248;2023-02-28T11:06:15;16.27;;;8.25;;
40164;SDS011;25882;51.120;17.248;2023-02-28T11:08:46;15.93;;;8.45;;
40164;SDS011;25882;51.120;17.248;2023-02-28T11:11:14;20.30;;;9.93;;
40164;SDS011;25882;51.120;17.248;2023-02-28T11:13:42;24.50;;;10.75;;
40164;SDS011;25882;51.120;17.248;2023-02-28T11:16:10;16.55;;;8.85;;
40164;SDS011;25882;51.120;17.248;2023-02-28T11:18:40;16.48;;;8.27;;
40164;SDS011;25882;51.120;17.248;2023-02-28T11:21:07;15.93;;;8.00;;
40164;SDS011;25882;51.120;17.248;2023-02-28T11:23:35;15.65;;;7.57;;
40164;SDS011;25882;51.120;17.248;2023-02-28T11:26:04;17.98;;;8.77;;
40164;SDS011;25882;51.120;17.248;2023-02-28T11:28:31;15.63;;;9.05;;
40164;SDS011;25882;51.120;17.248;2023-02-28T11:31:06;16.35;;;8.85;;
40164;SDS011;25882;51.120;17.248;2023-02-28T11:33:43;16.17;;;8.82;;
40164;SDS011;25882;51.120;17.248;2023-02-28T11:36:11;16.35;;;9.55;;
40164;SDS011;25882;51.120;17.248;2023-02-28T11:38:40;17.75;;;9.35;;
40164;SDS011;25882;51.120;17.248;2023-02-28T11:41:19;18.42;;;8.07;;
40164;SDS011;25882;51.120;17.248;2023-02-28T11:44:03;16.65;;;8.45;;
40164;SDS011;25882;51.120;17.248;2023-02-28T11:46:37;15.18;;;8.48;;
40164;SDS011;25882;51.120;17.248;2023-02-28T11:49:11;23.95;;;10.45;;
40164;SDS011;25882;51.120;17.248;2023-02-28T11:54:24;21.88;;;10.38;;
40164;SDS011;25882;51.120;17.248;2023-02-28T11:56:58;19.23;;;11.05;;
40164;SDS011;25882;51.120;17.248;2023-02-28T11:59:35;18.30;;;9.50;;
40164;SDS011;25882;51.120;17.248;2023-02-28T12:05:08;19.40;;;9.30;;
40164;SDS011;25882;51.120;17.248;2023-02-28T12:07:40;19.88;;;10.13;;
40164;SDS011;25882;51.120;17.248;2023-02-28T12:10:17;18.05;;;9.48;;
40164;SDS011;25882;51.120;17.248;2023-02-28T12:12:49;19.17;;;10.38;;
40164;SDS011;25882;51.120;17.248;2023-02-28T12:15:25;20.38;;;9.57;;
40164;SDS011;25882;51.120;17.248;2023-02-28T12:18:05;20.67;;;12.50;;
40164;SDS011;25882;51.120;17.248;2023-02-28T12:20:45;17.08;;;9.93;;
40164;SDS011;25882;51.120;17.248;2023-02-28T12:23:23;20.17;;;10.93;;
40164;SDS011;25882;51.120;17.248;2023-02-28T12:26:00;21.45;;;10.45;;
40164;SDS011;25882;51.120;17.248;2023-02-28T12:28:31;21.17;;;12.40;;
40164;SDS011;25882;51.120;17.248;2023-02-28T12:31:02;25.02;;;12.30;;
40164;SDS011;25882;51.120;17.248;2023-02-28T12:33:32;23.05;;;11.68;;
40164;SDS011;25882;51.120;17.248;2023-02-28T12:36:00;20.63;;;10.98;;
40164;SDS011;25882;51.120;17.248;2023-02-28T12:38:31;29.88;;;13.45;;
40164;SDS011;25882;51.120;17.248;2023-02-28T12:41:01;26.05;;;12.15;;
40164;SDS011;25882;51.120;17.248;2023-02-28T12:43:30;22.75;;;11.75;;
40164;SDS011;25882;51.120;17.248;2023-02-28T12:46:00;22.35;;;13.32;;
40164;SDS011;25882;51.120;17.248;2023-02-28T12:48:31;63.67;;;30.27;;
40164;SDS011;25882;51.120;17.248;2023-02-28T12:51:03;24.25;;;12.35;;
40164;SDS011;25882;51.120;17.248;2023-02-28T12:53:33;22.35;;;11.65;;
40164;SDS011;25882;51.120;17.248;2023-02-28T12:56:08;23.17;;;12.50;;
40164;SDS011;25882;51.120;17.248;2023-02-28T12:58:41;19.73;;;12.05;;
40164;SDS011;25882;51.120;17.248;2023-02-28T13:01:35;24.25;;;12.57;;
40164;SDS011;25882;51.120;17.248;2023-02-28T13:07:10;22.52;;;11.65;;
40164;SDS011;25882;51.120;17.248;2023-02-28T13:09:50;59.88;;;21.58;;
40164;SDS011;25882;51.120;17.248;2023-02-28T13:12:18;25.30;;;12.95;;
40164;SDS011;25882;51.120;17.248;2023-02-28T13:14:47;30.25;;;15.63;;
40164;SDS011;25882;51.120;17.248;2023-02-28T13:17:17;44.10;;;19.17;;
40164;SDS011;25882;51.120;17.248;2023-02-28T13:19:45;30.63;;;13.55;;
40164;SDS011;25882;51.120;17.248;2023-02-28T13:22:18;20.15;;;10.57;;
40164;SDS011;25882;51.120;17.248;2023-02-28T13:24:46;25.10;;;12.23;;
40164;SDS011;25882;51.120;17.248;2023-02-28T13:27:22;27.08;;;12.27;;
40164;SDS011;25882;51.120;17.248;2023-02-28T13:29:52;22.20;;;12.07;;
40164;SDS011;25882;51.120;17.248;2023-02-28T13:32:20;31.75;;;13.82;;
40164;SDS011;25882;51.120;17.248;2023-02-28T13:35:14;23.60;;;11.45;;
40164;SDS011;25882;51.120;17.248;2023-02-28T13:38:09;27.27;;;13.20;;
40164;SDS011;25882;51.120;17.248;2023-02-28T13:40:41;36.88;;;13.88;;
40164;SDS011;25882;51.120;17.248;2023-02-28T13:43:08;29.08;;;14.13;;
40164;SDS011;25882;51.120;17.248;2023-02-28T13:45:36;30.10;;;13.85;;
40164;SDS011;25882;51.120;17.248;2023-02-28T13:48:15;23.02;;;13.68;;
40164;SDS011;25882;51.120;17.248;2023-02-28T13:50:42;24.17;;;13.40;;
40164;SDS011;25882;51.120;17.248;2023-02-28T13:56:06;26.42;;;10.65;;
40164;SDS011;25882;51.120;17.248;2023-02-28T13:58:39;21.23;;;12.18;;
40164;SDS011;25882;51.120;17.248;2023-02-28T14:01:12;23.88;;;12.82;;
40164;SDS011;25882;51.120;17.248;2023-02-28T14:04:00;24.60;;;13.18;;
40164;SDS011;25882;51.120;17.248;2023-02-28T14:06:46;45.05;;;20.65;;
40164;SDS011;25882;51.120;17.248;2023-02-28T14:09:19;23.23;;;11.45;;
40164;SDS011;25882;51.120;17.248;2023-02-28T14:11:48;19.48;;;9.95;;
40164;SDS011;25882;51.120;17.248;2023-02-28T14:17:28;23.48;;;10.60;;
40164;SDS011;25882;51.120;17.248;2023-02-28T14:19:55;19.80;;;10.77;;
40164;SDS011;25882;51.120;17.248;2023-02-28T14:22:36;19.92;;;10.57;;
40164;SDS011;25882;51.120;17.248;2023-02-28T14:25:11;20.00;;;10.70;;
40164;SDS011;25882;51.120;17.248;2023-02-28T14:27:45;18.48;;;10.82;;
40164;SDS011;25882;51.120;17.248;2023-02-28T14:30:37;40.65;;;21.40;;
40164;SDS011;25882;51.120;17.248;2023-02-28T14:33:20;26.05;;;12.95;;
40164;SDS011;25882;51.120;17.248;2023-02-28T14:38:19;18.45;;;10.07;;
40164;SDS011;25882;51.120;17.248;2023-02-28T14:40:49;16.55;;;9.43;;
40164;SDS011;25882;51.120;17.248;2023-02-28T14:43:21;20.95;;;10.48;;
40164;SDS011;25882;51.120;17.248;2023-02-28T14:45:55;23.25;;;12.30;;
40164;SDS011;25882;51.120;17.248;2023-02-28T14:48:24;21.15;;;11.75;;
40164;SDS011;25882;51.120;17.248;2023-02-28T14:50:54;27.08;;;11.85;;
40164;SDS011;25882;51.120;17.248;2023-02-28T14:53:22;21.17;;;12.77;;
40164;SDS011;25882;51.120;17.248;2023-02-28T14:55:51;19.13;;;10.70;;